Login to view Products
 
Sunday, May 31, 2020 (12:27 UTC)
Al Maktoum International Airport
Last Updated: 31-May-2020 (12:26Z)
Wind Dir/Speed: WNW at 17 kt
Temperature: 37.5°C
Rel. Humidity: 41 %
Pressure: 1004.2 hPa
Visibility: 7000 m
  • METAR OMDW 311200Z 29019KT 7000 NSC 38/23 Q1004 NOSIG
  • TAF OMDW 311053Z 3112/0118 30016KT 7000 NSC PROB30 3112/3116 3000 DU BECMG 3115/3117 16005KT BECMG 0101/0103 18015KT PROB40 0102/0113 4000 DU PROB30 TEMPO 0103/0109 20018G28KT 2000 BLDU BECMG 0109/0111 31016KT BECMG 0115/0117 07005KT=
D:\Input Parser\Destinations\Final\10\OMDWL121810531676743466.txt
1